Terminal Aerodrome Forecast
Issued by NWS Tuscon, AZ

Home | Current Version | Previous Version | Text Only | Print | Product List | Glossary On
Versions: 1 2 3 4 5 6 7 8 9 10 11 12
000
FTUS45 KTWC 200500
TAFDUG
TAF
KDUG 200540Z 2006/2106 36004KT P6SM FEW090 SCT200
     FM200900 VRB05KT P6SM SCT200
     FM201900 09007KT P6SM SCT070 SCT200
     FM202200 10009KT P6SM VCSH SCT080 BKN180
     FM210200 05007KT P6SM SCT080 SCT200=

USA.gov is the U.S. government's official web portal to all federal, state and local government web resources and services.